Nearby METAR Reports

 

KMQY - Smyrna, Tennessee, USA
Distance from station: WNW 14mi, 22km
Updated: Fri, 23-Oct-2020 7:33pm CDT
Nearby thunderstorm, Light rain, Overcast
Nearby thunderstorm, Light rain, Overcast
 Wind from W
Wind: W 20 mph , 31 km/h, Gust: 26 mph , 43 km/h
Temperature: 70°F , 21°C
Dew Point: 63°F , 17°C
Humidity: 78%
Barometer: 30.06 inHg , 1017.9 hPa
Summary: Nearby thunderstorm, Light rain
Clouds: Overcast
Visibility: 10 miles , 16 km
Cloud details: Mostly cloudy 3300 ft
Mostly cloudy 4200 ft
Overcast 8000 ft
2020/10/24 00:33 KMQY 240033Z 28017G23KT 10SM VCTS -RA BKN033 BKN042 OVC080 21/17 A3006 RMK AO2 LTG DSNT SW-N TSB27RAB31 PNO $
KSYI - Shelbyville, Tennessee, USA
Distance from station: SSW 25mi, 40km
Updated: Fri, 23-Oct-2020 7:35pm CDT
Clear
Clear
 Wind from SSW
Wind: SSW 6 mph , 9 km/h
Temperature: 70°F , 21°C
Dew Point: 64°F , 18°C
Humidity: 83%
Barometer: 30.02 inHg , 1016.6 hPa
Clouds: Clear
Visibility: 10 miles , 16 km
2020/10/24 00:35 KSYI 240035Z AUTO 20005KT 10SM CLR 21/18 A3002 RMK A01
KBNA - Nashville, Tennessee, USA
Distance from station: NW 25mi, 41km
Updated: Fri, 23-Oct-2020 7:29pm CDT
Light thunderstorm, Rain, Mist, Mostly cloudy
Light thunderstorm, Rain, Mist, Mostly cloudy
 Wind from W
Wind: W 5 mph , 7 km/h
Temperature: 66°F , 19°C
Dew Point: 63°F , 17°C
Humidity: 88%
Barometer: 30.06 inHg , 1017.9 hPa
Summary: Light thunderstorm, Rain, Mist
Clouds: Mostly cloudy
Visibility: 4 miles , 6 km
Cloud details: Few Clouds 800 ft
Partly cloudy 1700 ft
Mostly cloudy 3100 ft
2020/10/24 00:29 KBNA 240029Z 27004KT 4SM -TSRA BR FEW008 SCT017 BKN031CB 19/17 A3006 RMK AO2 LTG DSNT NE AND SW AND W RAB03 FRQ LTGICCCCG OHD TS OHD MOV E P0044 T01890172
 
KRNC - Mcminnville, Tennessee, USA
Distance from station: ESE 30mi, 48km
Updated: Fri, 23-Oct-2020 7:35pm CDT
Clear
Clear
 Wind from calm
Wind: Calm
Temperature: 70°F , 21°C
Dew Point: 64°F , 18°C
Humidity: 83%
Barometer: 30.03 inHg , 1016.9 hPa
Clouds: Clear
Visibility: 10 miles , 16 km
2020/10/24 00:35 KRNC 240035Z AUTO 00000KT 10SM CLR 21/18 A3003 RMK A01
KM33 - Gallatin, Tennessee, USA
Distance from station: N 33mi, 54km
Updated: Wed, 23-May-2018 7:55pm CDT
NOT Current
Clear
Clear
 Wind from calm
Wind: Calm
Temperature: 79°F , 26°C
Dew Point: 66°F , 19°C
Humidity: 65%
Barometer: 30.10 inHg , 1019.3 hPa
Clouds: Clear
Visibility: 10 miles , 16 km
2018/05/24 00:55 KM33 240055Z AUTO 00000KT 10SM CLR 26/19 A3010 RMK A01
KTHA - Tullahoma, Tennessee, USA
Distance from station: S 36mi, 59km
Updated: Fri, 23-Oct-2020 7:35pm CDT
Clear
Clear
 Wind from calm
Wind: Calm
Temperature: 66°F , 19°C
Dew Point: 63°F , 17°C
Humidity: 88%
Barometer: 30.03 inHg , 1016.9 hPa
Clouds: Clear
Visibility: 10 miles , 16 km
2020/10/24 00:35 KTHA 240035Z AUTO 00000KT 10SM CLR 19/17 A3003 RMK A01
 
KJWN - Nashv/Jc Tune, Tennessee, USA
Distance from station: WNW 37mi, 60km
Updated: Thu, 22-Oct-2020 3:20pm CDT
NOT Current
Mostly cloudy
Mostly cloudy
 Wind from SSE
Wind: SSE 9 mph , 15 km/h, Gust: 15 mph , 24 km/h
Temperature: 84°F , 29°C
Heat Index: 84°F , 29°C
Dew Point: 61°F , 16°C
Humidity: 45%
Barometer: 30.05 inHg , 1017.6 hPa
Clouds: Mostly cloudy
Visibility: 9 miles , 14 km
Cloud details: Mostly cloudy 6000 ft
Mostly cloudy 7000 ft
2020/10/22 20:20 KJWN 222020Z AUTO 15008G13KT 9SM BKN060 BKN070 29/16 A3005 RMK A01
KSRB - Sparta, Tennessee, USA
Distance from station: ENE 45mi, 72km
Updated: Fri, 23-Oct-2020 7:35pm CDT
Mostly cloudy
Mostly cloudy
 Wind from calm
Wind: Calm
Temperature: 70°F , 21°C
Dew Point: 64°F , 18°C
Humidity: 83%
Barometer: 30.03 inHg , 1016.9 hPa
Clouds: Mostly cloudy
Visibility: 10 miles , 16 km
Cloud details: Partly cloudy 4400 ft
Mostly cloudy 5000 ft
2020/10/24 00:35 KSRB 240035Z AUTO 00000KT 10SM SCT044 BKN050 21/18 A3003 RMK A01
K1M5 - Portland, Tennessee, USA
Distance from station: NNW 49mi, 78km
Updated: Fri, 23-Oct-2020 7:35pm CDT
Overcast
Overcast
 Wind from NNE
Wind: NNE 3 mph , 6 km/h
Temperature: 64°F , 18°C
Dew Point: 64°F , 18°C
Humidity: 100%
Barometer: 30.03 inHg , 1016.9 hPa
Clouds: Overcast
Visibility: 10 miles , 16 km
Cloud details: Partly cloudy 2600 ft
Mostly cloudy 3800 ft
Overcast 9500 ft
2020/10/24 00:35 K1M5 240035Z AUTO 02003KT 10SM SCT026 BKN038 OVC095 18/18 A3003 RMK A01